Terminal Aerodrome Forecast
Issued by NWS

Home | Current Version | Previous Version | Text Only | Print | Product List | Glossary On
Versions: 1 2 3 4 5 6 7 8 9 10 11 12
290
FTUS43 KAPX 250520
TAFAPN
TAF
KAPN 250520Z 2506/2606 13006KT P6SM BKN250 WS015/16035KT
     FM251200 14008KT P6SM BKN090
     FM251400 14009KT P6SM BKN050
     FM260200 13005KT P6SM BKN025=

USA.gov is the U.S. government's official web portal to all federal, state and local government web resources and services.